Hlavní strana
METAR-TAF:

METAR-TAF

Letiště :

Ouagadougou, Burkina Faso

zeměpisná šířka: 12-21N, zeměpisná délka: 001-31W, výška: 316 m

Aktuální stav počasí

Zpráva byla vytvořena před 1 hodinou a 34 minutami, v 03:00 UTC
Bezvětří
Teplota 22°C
Vlhkost vzduchu 60%
Tlak 1011 hPa
Viditelnost 10 km a více
Žádná oblačnost pod 1500 m, nevyskytují se cumulonimby.

METAR: DFFD 170300Z 00000KT CAVOK 22/14 Q1011 NOSIG

Čas: 04:34 (04:34 UTC)

Předpověď počasí

Zpráva byla vytvořena před 11 hodinami a 34 minutami, v 17:00 UTC
Předpověď platná od 16 v 18 UTC do 17 v 24 UTC
vítr z různých směrů 8 kt
Viditelnost: 8000 m
Dočasný
od 16 v 18 UTC do 16 v 20 UTC
Viditelnost: 4000 m
zákal
Dočasný
od 17 v 06 UTC do 17 v 10 UTC
Viditelnost: 2000 m
zákal

TAF: DFFD 161700Z 1618/1724 VRB08KT 8000 NSC TEMPO 1618/1620 4000 HZ TEMPO 1706/1710 2000 HZ

Stav a předpovědi počasí z více než 4 000 letišť (zprávy METAR a TAF).

Červené a žluté tečky na mapě představují dostupné meteorologické stanice.

Když kurzor umístíte na tečku, zobrazí se název stanice.

Pak kliknutím zobrazíte stav a předpověď počasí.

Chcete-li změnit mapu, kliknutím na zelené tlačítko se znaménkem +mapu přiblížíte, kliknutím na zelené tlačítko se znaménkem – mapu oddálíte a kliknutím na zelené šipky přejdete na sousední mapy.


METAR-TAF: